Time;durP1;ratioP1;P1;durP2;ratioP2;P2;SDS_P1;SDS_P2;PMS_P1;PMS_P2;Temp;Humidity;BMP_temperature;BMP_pressure;BME280_temperature;BME280_humidity;BME280_pressure;Samples;Min_cycle;Max_cycle;Signal;HPM_P1;HPM_P2
2022/05/04 00:01:18;;;;;;;4.53;3.35;;;12.00;99.90;;;;;;4985148;28;20038;-76
2022/05/04 00:03:44;;;;;;;4.65;3.42;;;12.00;99.90;;;;;;4990193;28;20022;-76
2022/05/04 00:06:10;;;;;;;4.70;3.10;;;12.00;99.90;;;;;;4986919;28;20022;-77
2022/05/04 00:08:37;;;;;;;3.63;3.30;;;12.00;99.90;;;;;;4987823;28;20042;-76
2022/05/04 00:11:04;;;;;;;3.65;3.33;;;11.90;99.90;;;;;;4988472;28;20038;-76
2022/05/04 00:13:31;;;;;;;3.50;3.20;;;11.80;99.90;;;;;;4989109;28;20474;-76
2022/05/04 00:15:57;;;;;;;4.30;3.75;;;11.80;99.90;;;;;;4987527;28;20061;-76
2022/05/04 00:18:23;;;;;;;3.28;2.97;;;11.80;99.90;;;;;;4990702;28;20120;-77
2022/05/04 00:20:49;;;;;;;7.45;3.40;;;11.80;99.90;;;;;;4997256;28;20076;-77
2022/05/04 00:23:15;;;;;;;5.85;3.17;;;11.80;99.90;;;;;;4996815;28;20037;-76
2022/05/04 00:25:41;;;;;;;3.97;3.05;;;11.80;99.90;;;;;;4984296;28;20039;-76
2022/05/04 00:28:07;;;;;;;3.72;3.33;;;11.80;99.90;;;;;;4989705;28;20038;-77
2022/05/04 00:30:32;;;;;;;2.75;2.55;;;11.70;99.90;;;;;;4988386;28;20102;-76
2022/05/04 00:33:00;;;;;;;3.08;2.78;;;11.70;99.90;;;;;;4991032;28;20224;-76
2022/05/04 00:35:26;;;;;;;6.40;3.20;;;11.70;99.90;;;;;;4990878;28;20141;-77
2022/05/04 00:37:52;;;;;;;3.22;2.90;;;11.30;99.90;;;;;;4991489;28;20169;-76
2022/05/04 00:40:17;;;;;;;2.92;2.67;;;11.20;99.90;;;;;;5021386;28;20034;-76
2022/05/04 00:42:43;;;;;;;3.22;2.72;;;11.20;99.90;;;;;;4989277;28;20460;-76
2022/05/04 00:45:09;;;;;;;3.50;3.20;;;11.30;99.90;;;;;;4988084;28;20038;-75
2022/05/04 00:47:35;;;;;;;4.00;3.20;;;11.40;99.90;;;;;;4997143;28;20564;-76
2022/05/04 00:50:06;;;;;;;4.22;3.00;;;11.40;99.90;;;;;;4988228;28;21169;-77
2022/05/04 00:52:37;;;;;;;6.10;3.40;;;11.30;99.90;;;;;;4989641;28;20034;-76
2022/05/04 00:55:07;;;;;;;2.40;2.20;;;11.30;99.90;;;;;;4996993;28;20038;-76
2022/05/04 01:00:20;;;;;;;2.20;2.00;;;11.20;99.90;;;;;;4988381;28;20125;-77
2022/05/04 01:02:46;;;;;;;2.28;2.08;;;11.10;99.90;;;;;;4988316;28;20129;-77
2022/05/04 01:05:14;;;;;;;2.35;1.90;;;11.00;99.90;;;;;;4994220;28;20048;-76
2022/05/04 01:07:51;;;;;;;;;;;;;;;;;;;;;
2022/05/04 01:11:34;;;;;;;1.95;1.85;;;10.80;99.90;;;;;;4990475;28;20038;-76
2022/05/04 01:14:06;;;;;;;2.40;2.20;;;10.70;99.90;;;;;;4944376;28;20186;-76
2022/05/04 01:16:33;;;;;;;2.28;2.10;;;10.70;99.90;;;;;;4927429;28;20124;-76
2022/05/04 01:19:03;;;;;;;3.10;2.80;;;10.70;99.90;;;;;;4967667;28;20746;-76
2022/05/04 01:21:29;;;;;;;3.17;2.70;;;10.70;99.90;;;;;;4993668;28;20353;-76
2022/05/04 01:24:00;;;;;;;3.25;2.95;;;10.80;99.90;;;;;;4991302;28;20461;-76
2022/05/04 01:26:29;;;;;;;4.13;2.75;;;10.80;99.90;;;;;;4981704;28;20058;-75
2022/05/04 01:28:55;;;;;;;4.40;3.05;;;10.80;99.90;;;;;;4996092;28;20092;-76
2022/05/04 01:31:32;;;;;;;;;;;;;;;;;;;;;
2022/05/04 01:34:00;;;;;;;2.95;2.65;;;10.60;99.90;;;;;;4969424;28;20465;-75
2022/05/04 01:36:27;;;;;;;3.28;2.97;;;10.60;99.90;;;;;;4995113;28;20061;-75
2022/05/04 01:38:52;;;;;;;2.83;2.53;;;10.60;99.90;;;;;;4994092;28;20030;-76
2022/05/04 01:44:38;;;;;;;4.75;3.28;;;10.50;99.90;;;;;;4994425;28;20037;-76
2022/05/04 01:47:04;;;;;;;2.72;2.40;;;10.20;99.90;;;;;;4985784;28;20038;-77
2022/05/04 01:49:30;;;;;;;5.13;3.08;;;10.20;99.90;;;;;;4985799;28;20470;-76
2022/05/04 01:51:56;;;;;;;2.83;2.45;;;10.20;99.90;;;;;;4986869;28;20495;-76
2022/05/04 01:54:26;;;;;;;5.55;3.13;;;10.20;99.90;;;;;;4992538;28;20058;-75
2022/05/04 01:56:51;;;;;;;4.78;3.30;;;10.20;99.90;;;;;;4987618;28;20041;-76
2022/05/04 01:59:17;;;;;;;3.38;3.03;;;10.20;99.90;;;;;;4993427;28;20030;-75
2022/05/04 02:01:43;;;;;;;3.72;3.35;;;10.10;99.90;;;;;;5022536;28;20077;-76
2022/05/04 02:04:09;;;;;;;4.20;2.90;;;10.10;99.90;;;;;;4990920;28;20495;-76
2022/05/04 02:06:42;;;;;;;3.28;2.42;;;10.00;99.90;;;;;;4997850;28;20034;-75
2022/05/04 02:09:09;;;;;;;2.75;2.53;;;9.80;99.90;;;;;;5019279;28;20033;-77
2022/05/04 02:11:35;;;;;;;3.78;2.17;;;9.80;99.90;;;;;;4993654;28;20054;-75
2022/05/04 02:14:01;;;;;;;2.63;2.42;;;9.80;99.90;;;;;;4990542;28;20143;-76
2022/05/04 02:16:28;;;;;;;2.78;2.53;;;10.00;99.90;;;;;;4996032;28;20045;-77
2022/05/04 02:18:55;;;;;;;4.10;3.00;;;10.00;99.90;;;;;;4993598;28;20038;-75
2022/05/04 02:21:20;;;;;;;1.98;1.88;;;10.00;99.90;;;;;;4991004;28;20518;-76
2022/05/04 02:23:46;;;;;;;2.47;2.28;;;10.00;99.90;;;;;;4990736;28;20472;-76
2022/05/04 02:26:12;;;;;;;2.55;2.35;;;10.10;99.90;;;;;;4987791;28;20032;-76
2022/05/04 02:28:38;;;;;;;2.80;2.50;;;10.00;99.90;;;;;;4989679;28;20057;-76
2022/05/04 02:31:04;;;;;;;2.50;2.30;;;10.00;99.90;;;;;;4991365;28;20046;-76
2022/05/04 02:33:30;;;;;;;2.28;2.17;;;10.10;99.90;;;;;;5017999;28;20037;-76
2022/05/04 02:38:40;;;;;;;2.30;2.13;;;10.20;99.90;;;;;;4989724;28;20117;-76
2022/05/04 02:41:05;;;;;;;4.85;3.25;;;10.20;99.90;;;;;;4988465;28;20129;-76
2022/05/04 02:43:32;;;;;;;4.65;3.25;;;10.10;99.90;;;;;;4986904;28;20030;-76
2022/05/04 02:46:12;;;;;;;3.83;3.28;;;10.00;99.90;;;;;;4992386;28;20034;-76
2022/05/04 02:48:38;;;;;;;3.75;3.45;;;10.00;99.90;;;;;;4986608;28;20478;-76
2022/05/04 02:51:04;;;;;;;3.72;3.10;;;10.00;99.90;;;;;;4990675;28;20045;-76
2022/05/04 02:53:30;;;;;;;6.50;3.30;;;10.00;99.90;;;;;;4987007;28;20046;-76
2022/05/04 02:55:55;;;;;;;7.22;3.35;;;10.10;99.90;;;;;;4995271;28;20038;-76
2022/05/04 02:58:21;;;;;;;5.07;3.28;;;10.10;99.90;;;;;;4993029;28;20042;-76
2022/05/04 03:00:50;;;;;;;4.88;3.25;;;10.00;99.90;;;;;;4999847;28;20034;-77
2022/05/04 03:03:16;;;;;;;4.50;3.47;;;10.00;99.90;;;;;;4994480;28;20038;-75
2022/05/04 03:05:43;;;;;;;4.45;3.20;;;10.00;99.90;;;;;;4996852;28;20110;-75
2022/05/04 03:08:12;;;;;;;3.70;3.38;;;10.00;99.90;;;;;;4993727;28;20026;-76
2022/05/04 03:13:34;;;;;;;5.07;4.13;;;9.80;99.90;;;;;;4953041;28;20047;-76
2022/05/04 03:15:59;;;;;;;3.53;3.08;;;9.80;99.90;;;;;;4994990;28;20034;-76
2022/05/04 03:18:51;;;;;;;64.72;4.35;;;9.70;99.90;;;;;;4996827;28;21532;-76
2022/05/04 03:21:33;;;;;;;2.22;2.03;;;9.40;99.90;;;;;;4997132;28;20026;-77
2022/05/04 03:24:00;;;;;;;2.10;2.00;;;9.30;99.90;;;;;;4999060;28;20650;-76
2022/05/04 03:26:26;;;;;;;22.35;3.08;;;9.10;99.90;;;;;;4991566;28;20049;-76
2022/05/04 03:29:01;;;;;;;3.58;2.90;;;9.00;99.90;;;;;;4995413;28;20113;-76
2022/05/04 03:31:27;;;;;;;3.33;2.95;;;9.10;99.90;;;;;;4993948;28;20089;-76
2022/05/04 03:34:02;;;;;;;3.35;2.90;;;9.20;99.90;;;;;;4991184;28;20073;-76
2022/05/04 03:36:29;;;;;;;4.05;2.85;;;9.20;99.90;;;;;;4991349;28;20041;-76
2022/05/04 03:39:05;;;;;;;;;;;;;;;;;;;;;
2022/05/04 03:41:49;;;;;;;3.72;3.08;;;9.30;99.90;;;;;;4993031;28;20040;-76
2022/05/04 03:44:16;;;;;;;2.78;2.42;;;9.40;99.90;;;;;;5000701;28;20038;-75
2022/05/04 03:46:53;;;;;;;3.97;2.60;;;9.50;99.90;;;;;;5009987;28;20044;-76
2022/05/04 03:49:22;;;;;;;3.00;2.65;;;9.50;99.90;;;;;;5009302;28;20034;-76
2022/05/04 03:51:56;;;;;;;2.53;2.33;;;9.60;99.90;;;;;;4988450;28;20042;-76
2022/05/04 03:54:22;;;;;;;2.85;2.65;;;9.50;99.90;;;;;;4997594;28;20069;-76
2022/05/04 03:56:48;;;;;;;3.45;3.15;;;9.50;99.90;;;;;;4995294;28;20093;-76
2022/05/04 03:59:14;;;;;;;4.93;3.40;;;9.30;99.90;;;;;;4992855;28;20473;-76
2022/05/04 04:01:40;;;;;;;4.35;3.30;;;9.00;99.90;;;;;;4988572;28;20044;-76
2022/05/04 04:04:18;;;;;;;4.18;3.42;;;8.90;99.90;;;;;;4994087;28;20128;-75
2022/05/04 04:06:44;;;;;;;3.23;2.93;;;8.90;99.90;;;;;;4991102;28;20088;-76
2022/05/04 04:09:15;;;;;;;3.67;3.20;;;8.90;99.90;;;;;;4993552;28;20046;-76
2022/05/04 04:11:42;;;;;;;5.38;3.38;;;9.00;99.90;;;;;;4990185;28;20038;-76
2022/05/04 04:14:09;;;;;;;7.43;3.10;;;9.10;99.90;;;;;;5021846;28;20034;-76
2022/05/04 04:16:35;;;;;;;4.00;3.45;;;9.20;99.90;;;;;;4990107;28;20084;-76
2022/05/04 04:19:01;;;;;;;6.30;3.63;;;9.00;99.90;;;;;;4992879;28;20434;-76
2022/05/04 04:24:12;;;;;;;4.88;3.80;;;9.10;99.90;;;;;;4994047;28;20081;-77
2022/05/04 04:26:38;;;;;;;4.38;3.97;;;9.20;99.90;;;;;;5001191;28;20030;-76
2022/05/04 04:29:04;;;;;;;4.95;3.50;;;9.30;99.90;;;;;;5018645;28;20034;-75
2022/05/04 04:31:30;;;;;;;3.28;2.97;;;9.30;99.90;;;;;;4990555;28;20050;-75
2022/05/04 04:33:57;;;;;;;6.22;3.67;;;9.40;99.90;;;;;;4990922;28;21115;-76
2022/05/04 04:36:46;;;;;;;4.28;3.55;;;9.40;99.90;;;;;;4989723;28;20045;-76
2022/05/04 04:39:12;;;;;;;4.10;3.40;;;9.50;99.90;;;;;;4984319;28;20046;-76
2022/05/04 04:41:42;;;;;;;3.97;3.58;;;9.50;99.90;;;;;;4989464;28;20033;-76
2022/05/04 04:44:13;;;;;;;5.32;3.40;;;9.50;99.90;;;;;;4993694;28;20034;-76
2022/05/04 04:46:41;;;;;;;6.32;3.83;;;9.60;99.90;;;;;;5003246;28;20049;-75
2022/05/04 04:49:11;;;;;;;5.53;4.22;;;9.60;99.90;;;;;;4993426;28;20042;-75
2022/05/04 04:51:58;;;;;;;4.07;3.67;;;9.50;99.90;;;;;;4995473;28;20045;-75
2022/05/04 04:57:51;;;;;;;5.78;4.10;;;9.50;99.90;;;;;;4997626;28;20072;-76
2022/05/04 05:00:28;;;;;;;5.97;4.18;;;9.50;99.90;;;;;;4988036;28;20393;-76
2022/05/04 05:02:56;;;;;;;4.13;3.72;;;9.60;99.90;;;;;;4998419;28;20121;-76
2022/05/04 05:05:23;;;;;;;;;;;9.60;99.90;;;;;;4991578;28;20030;-76
2022/05/04 05:07:49;;;;;;;6.00;4.13;;;9.70;99.90;;;;;;4994842;28;19914;-76
2022/05/04 05:10:15;;;;;;;7.50;4.45;;;9.70;99.90;;;;;;4994735;28;20045;-77
2022/05/04 05:12:51;;;;;;;7.30;4.72;;;9.50;99.90;;;;;;5018791;28;20038;-76
2022/05/04 05:18:05;;;;;;;7.00;5.00;;;9.60;99.90;;;;;;5000999;28;20153;-76
2022/05/04 05:20:31;;;;;;;8.27;5.35;;;9.80;99.90;;;;;;4998278;28;20496;-76
2022/05/04 05:23:04;;;;;;;6.90;5.03;;;9.80;99.90;;;;;;4995175;28;20046;-77
2022/05/04 05:25:32;;;;;;;8.65;5.50;;;9.80;99.90;;;;;;4997324;28;20114;-77
2022/05/04 05:28:05;;;;;;;8.75;6.18;;;10.00;99.90;;;;;;4995181;28;20034;-77
2022/05/04 05:30:34;;;;;;;7.43;5.28;;;10.00;99.90;;;;;;4986488;28;20057;-77
2022/05/04 05:33:12;;;;;;;8.50;5.93;;;10.10;99.90;;;;;;4992576;28;20030;-77
2022/05/04 05:35:46;;;;;;;7.97;5.83;;;10.20;99.90;;;;;;5017589;28;20038;-76
2022/05/04 05:38:40;;;;;;;9.27;5.95;;;10.20;99.90;;;;;;5062698;28;20999;-32
2022/05/04 05:41:06;;;;;;;7.85;5.63;;;10.30;99.90;;;;;;5046652;28;20216;-32
2022/05/04 05:43:32;;;;;;;8.98;5.35;;;10.40;99.90;;;;;;5050609;28;20382;-32
2022/05/04 05:45:57;;;;;;;7.93;5.97;;;10.50;99.90;;;;;;5053061;28;20105;-32
2022/05/04 05:48:23;;;;;;;9.15;5.50;;;10.50;99.90;;;;;;5048129;28;20391;-32
2022/05/04 05:50:48;;;;;;;8.90;5.47;;;10.50;99.90;;;;;;5062301;28;20024;-32
2022/05/04 05:53:14;;;;;;;7.88;5.50;;;10.50;99.90;;;;;;5056797;28;20028;-32
2022/05/04 05:55:43;;;;;;;8.70;5.60;;;10.40;99.90;;;;;;5046644;28;20754;-32
2022/05/04 05:58:10;;;;;;;8.82;6.18;;;10.40;99.90;;;;;;5053611;28;20103;-32
2022/05/04 06:00:36;;;;;;;7.50;5.53;;;10.50;99.90;;;;;;5049438;28;20074;-32
2022/05/04 06:03:02;;;;;;;7.75;5.72;;;10.50;99.90;;;;;;5027621;28;20017;-32
2022/05/04 06:05:28;;;;;;;8.57;5.78;;;10.60;99.90;;;;;;5025877;28;20022;-33
2022/05/04 06:07:53;;;;;;;7.25;5.40;;;10.80;99.90;;;;;;5019106;28;20037;-32
2022/05/04 06:10:19;;;;;;;7.25;5.20;;;10.80;99.90;;;;;;5027321;28;20052;-32
2022/05/04 06:12:45;;;;;;;7.47;4.93;;;11.00;99.90;;;;;;5027268;28;20371;-32
2022/05/04 06:15:12;;;;;;;7.95;5.40;;;11.10;99.90;;;;;;5026714;28;20041;-32
2022/05/04 06:17:38;;;;;;;7.93;5.05;;;11.20;99.90;;;;;;5027654;28;20029;-32
2022/05/04 06:20:07;;;;;;;6.93;5.18;;;11.30;99.90;;;;;;5026233;28;20029;-32
2022/05/04 06:22:33;;;;;;;9.02;5.45;;;11.40;99.90;;;;;;5028716;28;20067;-32
2022/05/04 06:24:59;;;;;;;7.78;5.63;;;11.40;99.90;;;;;;5023005;28;20025;-32
2022/05/04 06:27:25;;;;;;;8.05;5.20;;;11.40;99.90;;;;;;5028767;28;20049;-32
2022/05/04 06:35:19;;;;;;;7.95;5.93;;;11.60;99.90;;;;;;5024070;28;20133;-32
2022/05/04 06:37:44;;;;;;;6.95;5.35;;;11.70;99.90;;;;;;5009741;28;20045;-32
2022/05/04 06:40:10;;;;;;;8.25;5.10;;;11.80;99.90;;;;;;5016071;28;21465;-32
2022/05/04 06:42:36;;;;;;;5.50;4.72;;;12.00;99.90;;;;;;5022900;28;20057;-33
2022/05/04 06:45:03;;;;;;;6.22;5.03;;;12.00;99.90;;;;;;5024384;28;20190;-32
2022/05/04 06:47:29;;;;;;;7.03;5.28;;;12.10;99.90;;;;;;5023048;28;20149;-33
2022/05/04 06:49:55;;;;;;;5.90;4.97;;;12.20;99.90;;;;;;5003877;28;20386;-32
2022/05/04 06:52:24;;;;;;;5.78;4.80;;;12.20;99.90;;;;;;5011067;28;20029;-32
2022/05/04 06:54:50;;;;;;;9.82;5.25;;;12.30;99.90;;;;;;5010561;28;20041;-32
2022/05/04 06:57:15;;;;;;;8.43;5.72;;;12.30;99.90;;;;;;5013492;28;20501;-32
2022/05/04 06:59:41;;;;;;;8.63;5.75;;;12.30;99.90;;;;;;5004537;28;20469;-32
2022/05/04 07:02:07;;;;;;;7.93;5.53;;;12.30;99.90;;;;;;5004605;28;20038;-33
2022/05/04 07:04:32;;;;;;;7.68;5.65;;;12.40;99.90;;;;;;5006841;28;20038;-32
2022/05/04 07:06:58;;;;;;;8.90;5.82;;;12.30;99.90;;;;;;5017210;28;20037;-32
2022/05/04 07:09:23;;;;;;;7.55;5.05;;;12.40;99.90;;;;;;5004826;28;20033;-32
2022/05/04 07:11:49;;;;;;;6.22;4.85;;;12.30;99.90;;;;;;5012643;28;20041;-33
2022/05/04 07:14:15;;;;;;;6.93;5.32;;;12.40;99.90;;;;;;5010322;28;20064;-32
2022/05/04 07:16:40;;;;;;;8.23;5.47;;;12.50;99.90;;;;;;5004817;28;20544;-32
2022/05/04 07:19:06;;;;;;;6.82;4.65;;;12.50;99.90;;;;;;5012928;28;20112;-32
2022/05/04 07:21:31;;;;;;;9.35;5.53;;;12.50;99.90;;;;;;5011222;28;20490;-32
2022/05/04 07:23:57;;;;;;;7.22;5.10;;;12.40;99.90;;;;;;5009971;28;20084;-32
2022/05/04 07:26:23;;;;;;;8.48;5.63;;;12.40;99.90;;;;;;5012326;28;20033;-32
2022/05/04 07:28:48;;;;;;;6.05;5.15;;;12.50;99.90;;;;;;5012295;28;20104;-32
2022/05/04 07:31:14;;;;;;;8.43;5.30;;;12.50;99.90;;;;;;5013282;28;20037;-32
2022/05/04 07:33:40;;;;;;;8.60;5.45;;;12.60;99.90;;;;;;5013827;28;20033;-32
2022/05/04 07:36:05;;;;;;;6.20;5.00;;;12.70;99.90;;;;;;5007713;28;20380;-32
2022/05/04 07:38:31;;;;;;;5.70;4.95;;;12.70;99.90;;;;;;5004657;28;20039;-32
2022/05/04 07:43:41;;;;;;;6.97;5.32;;;12.80;99.90;;;;;;5015188;28;20055;-33
2022/05/04 07:46:07;;;;;;;7.55;5.30;;;12.80;99.90;;;;;;5014122;28;20029;-32
2022/05/04 07:48:32;;;;;;;6.95;5.22;;;12.90;99.90;;;;;;5011213;28;20129;-32
2022/05/04 07:50:58;;;;;;;8.25;5.15;;;13.00;99.90;;;;;;5013944;28;20063;-33
2022/05/04 07:53:23;;;;;;;6.10;5.07;;;13.00;99.90;;;;;;5013353;28;20809;-32
2022/05/04 07:55:49;;;;;;;7.25;5.18;;;13.10;99.90;;;;;;5022918;28;20120;-32
2022/05/04 07:58:15;;;;;;;6.97;4.95;;;13.10;99.90;;;;;;5009564;28;20038;-32
2022/05/04 08:06:12;;;;;;;8.18;5.05;;;13.20;99.90;;;;;;5012872;28;20560;-33
2022/05/04 08:08:38;;;;;;;7.55;5.60;;;13.20;99.90;;;;;;5015756;28;20074;-32
2022/05/04 08:11:04;;;;;;;8.27;5.90;;;13.30;99.90;;;;;;5012440;28;20111;-33
2022/05/04 08:13:30;;;;;;;8.75;5.25;;;13.50;99.90;;;;;;5013107;28;20041;-32
2022/05/04 08:15:55;;;;;;;9.30;5.97;;;13.60;99.90;;;;;;5013026;28;20414;-32
2022/05/04 08:18:21;;;;;;;9.57;5.47;;;13.60;99.90;;;;;;5008520;28;20037;-32
2022/05/04 08:20:47;;;;;;;8.43;5.82;;;13.60;99.90;;;;;;5014798;28;20037;-32
2022/05/04 08:23:13;;;;;;;10.00;6.05;;;13.60;99.90;;;;;;5010320;28;20708;-33
2022/05/04 08:25:38;;;;;;;10.45;6.38;;;13.70;99.90;;;;;;5010974;28;20072;-34
2022/05/04 08:28:04;;;;;;;7.72;5.97;;;13.80;99.90;;;;;;5013059;28;20030;-33
2022/05/04 08:30:30;;;;;;;9.02;5.82;;;14.00;99.90;;;;;;5011747;28;20552;-32
2022/05/04 08:32:55;;;;;;;8.23;6.50;;;14.00;99.90;;;;;;5010449;28;20030;-32
2022/05/04 08:35:21;;;;;;;9.13;6.10;;;14.10;99.90;;;;;;5014441;28;20363;-32
2022/05/04 08:37:48;;;;;;;9.65;6.38;;;14.30;99.90;;;;;;5007177;28;20042;-32
2022/05/04 08:40:14;;;;;;;8.77;6.00;;;14.40;99.90;;;;;;5011262;28;20030;-32
2022/05/04 08:42:42;;;;;;;8.50;6.32;;;14.60;99.90;;;;;;5014982;28;20560;-32
2022/05/04 08:45:11;;;;;;;7.63;6.10;;;15.00;99.90;;;;;;5010852;28;20029;-32
2022/05/04 08:47:41;;;;;;;9.15;6.13;;;15.30;99.90;;;;;;5015840;28;20040;-33
2022/05/04 08:50:15;;;;;;;9.55;5.82;;;15.20;99.90;;;;;;5009566;28;20398;-33
2022/05/04 08:52:51;;;;;;;9.00;5.88;;;15.80;99.90;;;;;;5008628;28;20175;-33
2022/05/04 08:55:18;;;;;;;7.65;5.75;;;16.20;99.90;;;;;;5008897;28;20025;-32
2022/05/04 08:57:43;;;;;;;6.13;5.20;;;16.20;99.90;;;;;;5009650;28;20030;-32
2022/05/04 09:00:10;;;;;;;5.93;4.75;;;16.20;99.90;;;;;;5011792;28;20071;-32
2022/05/04 09:02:37;;;;;;;5.63;4.32;;;16.00;99.90;;;;;;5007860;28;20080;-32
2022/05/04 09:05:19;;;;;;;7.22;5.00;;;16.00;99.90;;;;;;5010795;28;20065;-32
2022/05/04 09:07:48;;;;;;;6.97;5.60;;;16.20;99.90;;;;;;5010163;28;20032;-32
2022/05/04 09:10:21;;;;;;;4.95;3.97;;;16.20;99.90;;;;;;5010628;28;20402;-32
2022/05/04 09:12:48;;;;;;;4.65;3.97;;;15.90;99.90;;;;;;5009635;28;20060;-34
2022/05/04 09:15:25;;;;;;;5.85;3.60;;;15.90;99.90;;;;;;5018725;28;20105;-33
2022/05/04 09:18:09;;;;;;;5.55;4.28;;;16.20;99.90;;;;;;5009132;28;20040;-33
2022/05/04 09:20:49;;;;;;;6.38;4.22;;;16.60;99.90;;;;;;5013083;28;20582;-32
2022/05/04 09:23:25;;;;;;;6.03;4.38;;;16.40;99.90;;;;;;5009657;28;20581;-32
2022/05/04 09:25:53;;;;;;;4.93;3.55;;;16.40;99.70;;;;;;5016946;28;20022;-32
2022/05/04 09:28:20;;;;;;;5.65;4.00;;;16.50;94.30;;;;;;5008703;28;20121;-32
2022/05/04 09:30:51;;;;;;;5.45;3.85;;;16.80;96.10;;;;;;5009247;28;20041;-32
2022/05/04 09:33:22;;;;;;;5.60;4.47;;;16.90;98.40;;;;;;5007750;28;20033;-32
2022/05/04 09:35:49;;;;;;;6.32;3.92;;;17.20;99.90;;;;;;5007279;28;20045;-32
2022/05/04 09:46:42;;;;;;;4.50;3.65;;;17.40;95.30;;;;;;5011739;28;20052;-32
2022/05/04 09:49:13;;;;;;;5.57;3.25;;;17.90;95.70;;;;;;5011601;28;20049;-32
2022/05/04 09:51:41;;;;;;;4.43;3.90;;;18.60;94.40;;;;;;5011165;28;20461;-32
2022/05/04 09:54:16;;;;;;;4.30;3.88;;;18.40;95.70;;;;;;5006756;28;20022;-32
2022/05/04 09:56:54;;;;;;;5.82;3.45;;;18.40;96.70;;;;;;5014602;28;20117;-33
2022/05/04 09:59:29;;;;;;;4.72;4.00;;;18.60;94.60;;;;;;5013131;28;20387;-32
2022/05/04 10:01:55;;;;;;;5.15;3.58;;;18.60;96.70;;;;;;5014754;28;20167;-32
2022/05/04 10:04:23;;;;;;;5.18;3.15;;;18.90;95.00;;;;;;5013508;28;20444;-33
2022/05/04 10:06:49;;;;;;;5.22;4.00;;;18.50;92.20;;;;;;5026282;28;20062;-32
2022/05/04 10:09:15;;;;;;;4.65;3.65;;;18.90;91.70;;;;;;5015387;28;20036;-33
2022/05/04 10:11:41;;;;;;;4.00;3.30;;;18.90;93.70;;;;;;5014558;28;20038;-32
2022/05/04 10:14:10;;;;;;;3.63;3.33;;;18.60;93.10;;;;;;5010829;28;20041;-32
2022/05/04 10:17:18;;;;;;;4.40;3.08;;;18.50;91.80;;;;;;5017268;28;20068;-32
2022/05/04 10:19:52;;;;;;;6.57;3.53;;;18.10;91.50;;;;;;5013703;28;20629;-32
2022/05/04 10:22:27;;;;;;;4.95;3.47;;;17.70;92.70;;;;;;5012041;28;20025;-32
2022/05/04 10:24:56;;;;;;;3.45;2.88;;;17.70;95.80;;;;;;5015295;28;20040;-33
2022/05/04 10:27:23;;;;;;;3.97;3.40;;;17.70;95.60;;;;;;5019095;28;20514;-32
2022/05/04 10:32:50;;;;;;;3.80;2.85;;;17.70;96.30;;;;;;5018137;28;20091;-32
2022/05/04 10:35:21;;;;;;;3.77;2.70;;;18.30;94.40;;;;;;5016314;28;20689;-32
2022/05/04 10:37:54;;;;;;;6.30;3.70;;;18.90;93.60;;;;;;5015268;28;20140;-32
2022/05/04 10:40:26;;;;;;;3.42;3.13;;;19.10;91.30;;;;;;5020216;28;20486;-32
2022/05/04 10:43:01;;;;;;;3.92;3.20;;;19.40;90.60;;;;;;5013118;28;20060;-32
2022/05/04 10:45:37;;;;;;;5.88;3.53;;;19.40;87.60;;;;;;5016707;28;20034;-32
2022/05/04 10:48:18;;;;;;;2.88;2.67;;;19.40;91.40;;;;;;5013439;28;20194;-33
2022/05/04 10:50:55;;;;;;;3.00;2.70;;;19.50;72.50;;;;;;5024903;28;20426;-32
2022/05/04 10:53:24;;;;;;;2.90;2.70;;;19.40;80.40;;;;;;5019458;28;20060;-32
2022/05/04 10:56:01;;;;;;;3.08;2.78;;;19.80;77.60;;;;;;5049435;28;20036;-32
2022/05/04 10:58:50;;;;;;;16.98;3.33;;;19.90;66.10;;;;;;5018844;28;20022;-32
2022/05/04 11:01:30;;;;;;;2.90;2.60;;;20.00;69.50;;;;;;5022218;28;20029;-33
2022/05/04 11:04:07;;;;;;;2.65;2.45;;;19.80;68.90;;;;;;5017125;28;20023;-32
2022/05/04 11:06:34;;;;;;;2.53;2.33;;;20.30;63.20;;;;;;5019419;28;20053;-32
2022/05/04 11:09:20;;;;;;;2.92;2.13;;;20.20;61.30;;;;;;5019786;28;20022;-32
2022/05/04 11:11:50;;;;;;;3.05;2.40;;;20.10;56.90;;;;;;5018465;28;20057;-32
2022/05/04 11:14:18;;;;;;;2.60;2.40;;;20.30;61.80;;;;;;5023121;28;20030;-32
2022/05/04 11:16:45;;;;;;;2.72;2.50;;;20.20;57.70;;;;;;5020185;28;20026;-33
2022/05/04 11:19:13;;;;;;;3.88;2.85;;;19.40;62.10;;;;;;5024597;28;20645;-32
2022/05/04 11:21:39;;;;;;;2.97;2.63;;;18.80;61.00;;;;;;5020144;28;20467;-32
2022/05/04 11:24:07;;;;;;;4.70;3.97;;;18.60;62.20;;;;;;5020870;28;20402;-32
2022/05/04 11:26:40;;;;;;;4.05;2.63;;;18.60;69.10;;;;;;5016479;28;20502;-32
2022/05/04 11:29:10;;;;;;;2.88;2.40;;;18.60;71.60;;;;;;5021428;28;20025;-33
2022/05/04 11:31:36;;;;;;;2.90;2.65;;;18.40;78.80;;;;;;5019468;28;20124;-33
2022/05/04 11:34:02;;;;;;;2.97;2.78;;;18.50;85.60;;;;;;5022946;28;20116;-33
2022/05/04 11:36:27;;;;;;;2.92;2.63;;;18.50;87.60;;;;;;5027811;28;20025;-32
2022/05/04 11:38:53;;;;;;;3.30;3.08;;;18.40;88.70;;;;;;5020357;28;20033;-32
2022/05/04 11:41:20;;;;;;;3.78;2.88;;;18.10;93.90;;;;;;5028725;28;20040;-32
2022/05/04 11:43:49;;;;;;;2.92;2.42;;;18.10;99.90;;;;;;5020337;28;20067;-33
2022/05/04 11:46:15;;;;;;;5.35;3.45;;;17.60;99.90;;;;;;5015451;28;20125;-33
2022/05/04 11:48:44;;;;;;;3.17;2.83;;;17.10;99.90;;;;;;5017752;28;20025;-32
2022/05/04 11:51:17;;;;;;;4.18;2.75;;;16.80;92.40;;;;;;5031928;28;20025;-32
2022/05/04 11:53:43;;;;;;;3.38;2.38;;;16.70;98.10;;;;;;5020145;28;20040;-32
2022/05/04 11:56:09;;;;;;;3.22;2.40;;;16.40;94.00;;;;;;5019206;28;20037;-32
2022/05/04 11:58:37;;;;;;;2.15;1.95;;;16.00;96.10;;;;;;5028102;28;20057;-32
2022/05/04 12:01:06;;;;;;;2.85;1.98;;;15.40;99.30;;;;;;5024280;28;20029;-32
2022/05/04 12:03:35;;;;;;;4.38;2.10;;;14.90;99.90;;;;;;5024618;28;20087;-33
2022/05/04 12:06:05;;;;;;;6.65;2.40;;;14.60;99.90;;;;;;5020491;28;20538;-32
2022/05/04 12:08:32;;;;;;;4.28;2.28;;;14.60;99.90;;;;;;5016917;28;20029;-32
2022/05/04 12:10:59;;;;;;;2.15;1.77;;;14.70;99.90;;;;;;5020790;28;20814;-32
2022/05/04 12:13:26;;;;;;;4.90;2.00;;;14.80;99.90;;;;;;5024153;28;20033;-32
2022/05/04 12:15:55;;;;;;;4.18;2.10;;;14.70;99.90;;;;;;5021178;28;20037;-32
2022/05/04 12:18:29;;;;;;;3.92;1.80;;;14.70;99.90;;;;;;5020042;28;20084;-32
2022/05/04 12:20:56;;;;;;;3.22;1.90;;;14.90;99.90;;;;;;5016594;28;20021;-32
2022/05/04 12:23:22;;;;;;;4.88;2.50;;;15.20;99.90;;;;;;5019301;28;20142;-32
2022/05/04 12:25:48;;;;;;;2.30;1.85;;;15.30;99.90;;;;;;5010030;28;20029;-31
2022/05/04 12:28:15;;;;;;;7.68;2.40;;;15.30;99.90;;;;;;5027028;28;20029;-31
2022/05/04 12:33:34;;;;;;;4.38;1.85;;;15.50;99.90;;;;;;5020680;28;20117;-32
2022/05/04 12:36:07;;;;;;;2.03;1.80;;;15.70;99.90;;;;;;5017705;28;20091;-32
2022/05/04 12:38:37;;;;;;;2.38;1.70;;;15.90;99.90;;;;;;5023094;28;20099;-33
2022/05/04 12:41:05;;;;;;;3.05;1.55;;;15.90;99.90;;;;;;5016308;28;20033;-32
2022/05/04 12:43:33;;;;;;;2.80;1.77;;;16.30;99.90;;;;;;5020656;28;20029;-32
2022/05/04 12:45:59;;;;;;;2.72;1.65;;;16.30;99.90;;;;;;5018126;28;20335;-32
2022/05/04 12:48:26;;;;;;;2.45;1.40;;;16.30;99.90;;;;;;5027019;28;20033;-32
2022/05/04 12:51:00;;;;;;;1.67;1.23;;;16.40;99.90;;;;;;5020471;28;20041;-32
2022/05/04 12:53:26;;;;;;;3.55;1.83;;;16.60;99.90;;;;;;5020344;28;20522;-32
2022/05/04 12:58:38;;;;;;;1.77;1.50;;;16.50;99.90;;;;;;5019295;28;20061;-32
2022/05/04 13:01:05;;;;;;;1.80;1.70;;;16.50;99.90;;;;;;5021445;28;20037;-32
2022/05/04 13:03:32;;;;;;;2.58;1.90;;;17.00;99.70;;;;;;5017594;28;20398;-33
2022/05/04 13:05:58;;;;;;;1.70;1.60;;;17.60;99.90;;;;;;5011191;28;20026;-32
2022/05/04 13:08:24;;;;;;;2.80;1.60;;;17.90;99.50;;;;;;5021616;28;20034;-32
2022/05/04 13:10:50;;;;;;;1.85;1.63;;;17.90;94.30;;;;;;5015504;28;20479;-32
2022/05/04 13:13:20;;;;;;;1.70;1.60;;;18.10;96.20;;;;;;5018286;28;20033;-32
2022/05/04 13:15:47;;;;;;;2.33;2.00;;;18.30;89.10;;;;;;5022535;28;20041;-32
2022/05/04 13:18:13;;;;;;;1.70;1.58;;;17.90;88.90;;;;;;5015179;28;20034;-32
2022/05/04 13:20:39;;;;;;;2.35;1.60;;;17.70;94.20;;;;;;5016248;28;20475;-32
2022/05/04 13:23:07;;;;;;;2.45;1.65;;;17.70;93.20;;;;;;5021642;28;20025;-32
2022/05/04 13:25:33;;;;;;;3.47;1.70;;;17.80;93.70;;;;;;5025359;28;20500;-32
2022/05/04 13:27:59;;;;;;;2.92;1.58;;;17.90;92.70;;;;;;5022280;28;20560;-32
2022/05/04 13:30:26;;;;;;;1.60;1.50;;;17.90;90.70;;;;;;5027133;28;20389;-32
2022/05/04 13:32:53;;;;;;;1.48;1.35;;;17.70;90.90;;;;;;5020633;28;20033;-32
2022/05/04 13:35:20;;;;;;;3.00;2.28;;;18.00;92.90;;;;;;5023943;28;20026;-32
2022/05/04 13:37:45;;;;;;;3.00;1.83;;;18.10;91.00;;;;;;5018492;28;20059;-32
2022/05/04 13:40:13;;;;;;;2.38;1.80;;;18.30;78.10;;;;;;5023297;28;20092;-33
2022/05/04 13:42:39;;;;;;;1.95;1.63;;;18.40;90.00;;;;;;5025018;28;20111;-32
2022/05/04 13:45:06;;;;;;;1.70;1.60;;;18.40;90.20;;;;;;5018703;28;20581;-33
2022/05/04 13:47:32;;;;;;;2.92;1.80;;;18.50;90.80;;;;;;5015394;28;20478;-32
2022/05/04 13:49:57;;;;;;;1.77;1.45;;;18.50;85.90;;;;;;5015745;28;20033;-32
2022/05/04 13:55:07;;;;;;;2.13;1.92;;;17.80;93.50;;;;;;5013093;28;20072;-32